createdAt,value
2018-02-22T00:01:01.724Z,33.67
2018-02-22T00:03:29.432Z,35.00
2018-02-22T00:05:56.951Z,34.30
2018-02-22T00:08:24.456Z,31.97
2018-02-22T00:10:52.003Z,34.03
2018-02-22T00:13:19.567Z,33.47
2018-02-22T00:15:47.083Z,34.43
2018-02-22T00:18:14.580Z,33.57
2018-02-22T00:20:42.138Z,33.23
2018-02-22T00:23:09.699Z,33.77
2018-02-22T00:25:37.259Z,34.30
2018-02-22T00:28:04.755Z,33.50
2018-02-22T00:30:32.282Z,32.47
2018-02-22T00:32:59.776Z,31.77
2018-02-22T00:35:27.296Z,31.63
2018-02-22T00:37:54.859Z,33.57
2018-02-22T00:40:22.376Z,31.13
2018-02-22T00:42:49.982Z,32.03
2018-02-22T00:45:17.499Z,32.13
2018-02-22T00:47:45.006Z,31.90
2018-02-22T00:50:12.531Z,30.03
2018-02-22T00:52:40.027Z,30.67
2018-02-22T00:55:07.543Z,31.50
2018-02-22T00:57:36.052Z,29.37
2018-02-22T01:00:03.611Z,30.27
2018-02-22T01:02:31.102Z,31.10
2018-02-22T01:04:58.728Z,29.97
2018-02-22T01:07:26.214Z,29.77
2018-02-22T01:09:53.739Z,30.10
2018-02-22T01:12:21.314Z,29.03
2018-02-22T01:14:48.827Z,30.47
2018-02-22T01:17:16.323Z,30.57
2018-02-22T01:19:43.857Z,29.27
2018-02-22T01:22:11.461Z,28.73
2018-02-22T01:24:38.980Z,30.33
2018-02-22T01:27:06.588Z,28.83
2018-02-22T01:29:34.128Z,31.47
2018-02-22T01:32:01.619Z,27.83
2018-02-22T01:34:29.163Z,28.43
2018-02-22T01:36:56.660Z,29.27
2018-02-22T01:39:24.168Z,28.10
2018-02-22T01:41:51.683Z,29.03
2018-02-22T01:44:19.179Z,28.63
2018-02-22T01:46:46.709Z,28.67
2018-02-22T01:49:14.216Z,27.97
2018-02-22T01:51:41.851Z,28.67
2018-02-22T01:54:09.343Z,28.10
2018-02-22T01:56:36.862Z,28.53
2018-02-22T01:59:04.403Z,28.70
2018-02-22T02:01:31.938Z,28.50
2018-02-22T02:03:59.432Z,30.50
2018-02-22T02:06:26.964Z,27.73
2018-02-22T02:08:54.472Z,28.23
2018-02-22T02:11:21.995Z,27.80
2018-02-22T02:13:49.491Z,27.13
2018-02-22T02:16:17.007Z,29.20
2018-02-22T02:18:44.667Z,27.97
2018-02-22T02:21:12.280Z,29.00
2018-02-22T02:23:39.778Z,27.50
2018-02-22T02:26:07.505Z,30.80
2018-02-22T02:28:35.015Z,29.60
2018-02-22T02:31:02.532Z,28.33
2018-02-22T02:33:30.036Z,29.60
2018-02-22T02:35:57.555Z,29.03
2018-02-22T02:38:25.080Z,29.10
2018-02-22T02:40:52.856Z,28.17
2018-02-22T02:43:20.348Z,26.07
2018-02-22T02:45:47.877Z,27.67
2018-02-22T02:48:15.424Z,29.00
2018-02-22T02:50:43.086Z,29.17
2018-02-22T02:53:10.589Z,30.60
2018-02-22T02:55:38.125Z,28.40
2018-02-22T02:58:05.623Z,28.60
2018-02-22T03:00:33.158Z,29.77
2018-02-22T03:03:00.657Z,29.23
2018-02-22T03:05:28.155Z,28.00
2018-02-22T03:07:55.667Z,30.37
2018-02-22T03:10:23.284Z,29.70
2018-02-22T03:12:50.811Z,29.20
2018-02-22T03:15:18.372Z,31.33
2018-02-22T03:17:45.939Z,28.83
2018-02-22T03:20:13.498Z,29.23
2018-02-22T03:22:41.035Z,28.27
2018-02-22T03:25:08.537Z,31.30
2018-02-22T03:27:36.099Z,30.53
2018-02-22T03:30:03.600Z,28.83
2018-02-22T03:32:31.192Z,28.83
2018-02-22T03:34:58.683Z,30.60
2018-02-22T03:37:26.224Z,28.97
2018-02-22T03:39:53.719Z,31.77
2018-02-22T03:42:21.251Z,29.30
2018-02-22T03:44:48.756Z,29.67
2018-02-22T03:47:16.299Z,27.83
2018-02-22T03:49:43.787Z,29.47
2018-02-22T03:52:11.484Z,29.50
2018-02-22T03:54:39.004Z,29.17
2018-02-22T03:57:06.534Z,29.53
2018-02-22T03:59:34.031Z,28.53
2018-02-22T04:02:01.603Z,29.67
2018-02-22T04:04:29.160Z,29.20
2018-02-22T04:06:56.719Z,29.40
2018-02-22T04:09:24.296Z,29.03
2018-02-22T04:11:51.815Z,29.47
2018-02-22T04:14:19.311Z,28.33
2018-02-22T04:16:46.860Z,27.73
2018-02-22T04:19:14.367Z,30.10
2018-02-22T04:21:41.883Z,27.70
2018-02-22T04:24:09.434Z,29.80
2018-02-22T04:26:36.948Z,28.50
2018-02-22T04:29:04.469Z,27.10
2018-02-22T04:31:32.006Z,28.37
2018-02-22T04:33:59.516Z,30.73
2018-02-22T04:36:27.027Z,28.77
2018-02-22T04:38:54.519Z,31.40
2018-02-22T04:41:22.035Z,28.30
2018-02-22T04:43:49.576Z,29.63
2018-02-22T04:46:17.112Z,29.37
2018-02-22T04:48:44.632Z,29.40
2018-02-22T04:51:12.202Z,29.00
2018-02-22T04:53:39.728Z,28.80
2018-02-22T04:56:07.286Z,28.93
2018-02-22T04:58:34.864Z,28.83
2018-02-22T05:01:02.425Z,27.50
2018-02-22T05:03:29.955Z,30.57
2018-02-22T05:05:57.616Z,28.47
2018-02-22T05:08:25.135Z,27.60
2018-02-22T05:10:52.648Z,30.10
2018-02-22T05:13:20.193Z,29.13
2018-02-22T05:15:47.711Z,29.00
2018-02-22T05:18:15.243Z,28.87
2018-02-22T05:20:42.799Z,30.03
2018-02-22T05:23:10.323Z,28.23
2018-02-22T05:25:37.952Z,28.53
2018-02-22T05:28:05.471Z,30.40
2018-02-22T05:30:33.040Z,29.27
2018-02-22T05:33:00.599Z,29.17
2018-02-22T05:35:28.087Z,28.23
2018-02-22T05:37:55.615Z,28.20
2018-02-22T05:40:23.181Z,30.17
2018-02-22T05:42:50.715Z,29.27
2018-02-22T05:45:18.228Z,27.77
2018-02-22T05:47:45.751Z,27.40
2018-02-22T05:50:13.257Z,27.77
2018-02-22T05:52:40.772Z,30.07
2018-02-22T05:55:08.336Z,29.30
2018-02-22T05:57:35.889Z,29.87
2018-02-22T06:00:03.404Z,28.33
2018-02-22T06:02:30.966Z,29.57
2018-02-22T06:04:58.456Z,29.30
2018-02-22T06:07:25.995Z,30.10
2018-02-22T06:09:53.492Z,30.77
2018-02-22T06:12:21.040Z,29.80
2018-02-22T06:14:48.612Z,28.40
2018-02-22T06:17:16.167Z,27.40
2018-02-22T06:19:43.732Z,27.23
2018-02-22T06:22:11.236Z,27.43
2018-02-22T06:24:38.836Z,28.93
2018-02-22T06:27:06.344Z,30.23
2018-02-22T06:29:33.863Z,30.20
2018-02-22T06:32:01.415Z,27.77
2018-02-22T06:34:28.931Z,29.10
2018-02-22T06:36:56.547Z,30.07
2018-02-22T06:39:24.112Z,28.83
2018-02-22T06:41:51.612Z,30.93
2018-02-22T06:44:19.143Z,29.37
2018-02-22T06:46:46.672Z,28.90
2018-02-22T06:49:14.192Z,26.97
2018-02-22T06:51:41.691Z,29.00
2018-02-22T06:54:09.252Z,30.90
2018-02-22T06:56:36.768Z,29.10
2018-02-22T06:59:04.291Z,29.50
2018-02-22T07:01:31.837Z,28.97
2018-02-22T07:03:59.351Z,27.53
2018-02-22T07:06:26.957Z,29.77
2018-02-22T07:08:54.475Z,30.27
2018-02-22T07:11:22.036Z,29.47
2018-02-22T07:13:49.567Z,29.97
2018-02-22T07:16:17.087Z,27.77
2018-02-22T07:18:44.604Z,29.33
2018-02-22T07:21:12.119Z,28.50
2018-02-22T07:23:39.632Z,27.27
2018-02-22T07:26:07.130Z,29.30
2018-02-22T07:28:34.648Z,27.57
2018-02-22T07:31:02.160Z,28.07
2018-02-22T07:33:29.686Z,27.83
2018-02-22T07:35:57.171Z,26.00
2018-02-22T07:38:24.730Z,26.47
2018-02-22T07:40:52.272Z,29.13
2018-02-22T07:43:19.833Z,27.07
2018-02-22T07:45:47.451Z,28.20
2018-02-22T07:48:15.023Z,27.20
2018-02-22T07:50:42.539Z,28.53
2018-02-22T07:53:10.067Z,28.80
2018-02-22T07:55:37.592Z,28.57
2018-02-22T07:58:05.188Z,28.77
2018-02-22T08:00:32.727Z,28.63
2018-02-22T08:03:00.224Z,28.00
2018-02-22T08:05:27.764Z,29.97
2018-02-22T08:07:55.328Z,29.00
2018-02-22T08:10:22.855Z,29.07
2018-02-22T08:12:50.485Z,29.37
2018-02-22T08:15:18.011Z,28.20
2018-02-22T08:17:45.566Z,27.50
2018-02-22T08:20:13.136Z,25.40
2018-02-22T08:22:40.636Z,26.03
2018-02-22T08:25:08.152Z,25.63
2018-02-22T08:27:36.607Z,26.53
2018-02-22T08:30:04.126Z,25.97
2018-02-22T08:32:31.628Z,27.17
2018-02-22T08:34:59.149Z,27.83
2018-02-22T08:37:26.644Z,27.60
2018-02-22T08:39:54.160Z,26.60
2018-02-22T08:42:21.704Z,26.73
2018-02-22T08:44:49.263Z,27.03
2018-02-22T08:47:16.859Z,25.13
2018-02-22T08:49:44.371Z,27.30
2018-02-22T08:52:11.882Z,26.90
2018-02-22T08:54:39.488Z,25.30
2018-02-22T08:57:07.029Z,26.60
2018-02-22T08:59:34.546Z,28.10
2018-02-22T09:02:02.151Z,28.20
2018-02-22T09:04:29.668Z,28.10
2018-02-22T09:06:57.285Z,26.93
2018-02-22T09:09:24.950Z,29.50
2018-02-22T09:11:52.444Z,28.27
2018-02-22T09:14:19.967Z,26.57
2018-02-22T09:16:47.463Z,26.10
2018-02-22T09:19:14.980Z,28.17
2018-02-22T09:21:42.565Z,26.87
2018-02-22T09:24:10.158Z,25.37
2018-02-22T09:26:37.743Z,26.57
2018-02-22T09:29:05.317Z,26.37
2018-02-22T09:31:32.836Z,27.33
2018-02-22T09:34:00.346Z,26.50
2018-02-22T09:36:27.901Z,27.27
2018-02-22T09:38:55.430Z,25.73
2018-02-22T09:41:22.955Z,26.30
2018-02-22T09:43:50.481Z,26.43
2018-02-22T09:46:18.024Z,25.73
2018-02-22T09:48:45.525Z,27.07
2018-02-22T09:51:13.055Z,25.70
2018-02-22T09:53:40.546Z,25.37
2018-02-22T09:56:08.059Z,26.63
2018-02-22T09:58:35.620Z,26.60
2018-02-22T10:01:03.176Z,24.97
2018-02-22T10:03:30.672Z,25.87
2018-02-22T10:05:58.184Z,28.17
2018-02-22T10:08:25.732Z,26.40
2018-02-22T10:10:53.276Z,27.80
2018-02-22T10:13:20.780Z,26.67
2018-02-22T10:15:48.336Z,26.47
2018-02-22T10:18:15.834Z,25.93
2018-02-22T10:20:43.604Z,25.63
2018-02-22T10:23:11.099Z,25.23
2018-02-22T10:25:38.671Z,26.23
2018-02-22T10:28:07.175Z,26.77
2018-02-22T10:30:34.831Z,25.63
2018-02-22T10:33:02.364Z,24.60
2018-02-22T10:35:29.919Z,23.63
2018-02-22T10:37:57.428Z,26.10
2018-02-22T10:40:24.988Z,24.67
2018-02-22T10:42:52.512Z,26.17
2018-02-22T10:45:20.028Z,25.40
2018-02-22T10:47:47.535Z,24.27
2018-02-22T10:50:15.048Z,23.83
2018-02-22T10:52:42.546Z,26.00
2018-02-22T10:55:11.024Z,24.87
2018-02-22T10:57:38.536Z,22.77
2018-02-22T11:00:06.056Z,25.27
2018-02-22T11:02:39.164Z,26.17
2018-02-22T11:05:06.676Z,24.70
2018-02-22T11:07:34.196Z,25.67
2018-02-22T11:10:01.684Z,25.07
2018-02-22T11:12:29.213Z,25.87
2018-02-22T11:14:56.710Z,25.00
2018-02-22T11:17:24.258Z,24.03
2018-02-22T11:19:51.925Z,23.57
2018-02-22T11:22:19.442Z,24.10
2018-02-22T11:24:47.855Z,25.47
2018-02-22T11:27:15.363Z,24.57
2018-02-22T11:29:42.859Z,24.43
2018-02-22T11:32:10.364Z,24.80
2018-02-22T11:34:37.870Z,24.97
2018-02-22T11:37:05.384Z,25.00
2018-02-22T11:39:32.940Z,25.30
2018-02-22T11:42:00.454Z,24.93
2018-02-22T11:44:27.973Z,23.80
2018-02-22T11:46:55.529Z,25.53
2018-02-22T11:49:23.076Z,23.33
2018-02-22T11:51:50.629Z,23.60
2018-02-22T11:54:18.112Z,24.40
2018-02-22T11:56:45.652Z,24.23
2018-02-22T11:59:13.152Z,24.17
2018-02-22T12:01:40.664Z,25.33
2018-02-22T12:04:08.238Z,24.87
2018-02-22T12:06:35.753Z,23.40
2018-02-22T12:09:03.247Z,22.97
2018-02-22T12:11:30.771Z,21.97
2018-02-22T12:13:58.360Z,22.53
2018-02-22T12:16:25.879Z,21.10
2018-02-22T12:18:53.371Z,25.00
2018-02-22T12:21:20.968Z,22.90
2018-02-22T12:23:48.499Z,23.70
2018-02-22T12:26:16.064Z,23.43
2018-02-22T12:28:43.561Z,25.00
2018-02-22T12:31:11.079Z,24.60
2018-02-22T12:33:38.635Z,23.33
2018-02-22T12:36:06.152Z,25.23
2018-02-22T12:38:33.639Z,24.40
2018-02-22T12:41:01.145Z,25.33
2018-02-22T12:43:28.695Z,23.37
2018-02-22T12:45:56.232Z,23.43
2018-02-22T12:48:23.776Z,22.10
2018-02-22T12:50:51.295Z,23.90
2018-02-22T12:53:18.868Z,22.53
2018-02-22T12:55:46.376Z,22.27
2018-02-22T12:58:13.887Z,23.77
2018-02-22T13:00:41.423Z,23.77
2018-02-22T13:03:08.931Z,22.13
2018-02-22T13:05:36.453Z,23.40
2018-02-22T13:08:04.235Z,25.50
2018-02-22T13:10:31.728Z,23.43
2018-02-22T13:12:59.252Z,24.33
2018-02-22T13:15:26.747Z,23.30
2018-02-22T13:17:54.299Z,23.73
2018-02-22T13:20:21.804Z,23.33
2018-02-22T13:22:49.319Z,23.63
2018-02-22T13:25:16.817Z,22.97
2018-02-22T13:27:44.333Z,23.83
2018-02-22T13:30:11.845Z,23.97
2018-02-22T13:32:51.245Z,23.17
2018-02-22T13:35:18.794Z,24.13
2018-02-22T13:40:48.935Z,22.37
2018-02-22T13:43:16.450Z,23.83
2018-02-22T13:45:43.941Z,23.37
2018-02-22T13:48:11.515Z,21.00
2018-02-22T13:50:50.848Z,22.93
2018-02-22T13:53:18.363Z,20.83
2018-02-22T13:55:45.871Z,21.07
2018-02-22T13:58:13.387Z,20.63
2018-02-22T14:00:52.759Z,21.67
2018-02-22T14:03:20.282Z,20.70
2018-02-22T14:05:47.774Z,20.60
2018-02-22T14:08:27.320Z,23.90
2018-02-22T14:10:54.893Z,23.00
2018-02-22T14:13:22.424Z,21.20
2018-02-22T14:15:49.911Z,21.17
2018-02-22T14:18:17.440Z,21.57
2018-02-22T14:20:45.545Z,21.33
2018-02-22T14:23:13.135Z,22.17
2018-02-22T14:25:40.619Z,21.13
2018-02-22T14:28:08.142Z,20.80
2018-02-22T14:30:35.638Z,21.33
2018-02-22T14:33:03.147Z,22.00
2018-02-22T14:35:30.680Z,21.73
2018-02-22T14:37:58.191Z,22.57
2018-02-22T14:40:25.692Z,22.03
2018-02-22T14:42:53.212Z,21.47
2018-02-22T14:45:20.708Z,21.23
2018-02-22T14:47:48.560Z,22.07
2018-02-22T14:50:16.052Z,21.50
2018-02-22T14:52:43.592Z,22.67
2018-02-22T14:55:11.155Z,22.07
2018-02-22T14:57:38.711Z,21.70
2018-02-22T15:00:06.200Z,21.63
2018-02-22T15:02:33.836Z,21.80
2018-02-22T15:05:01.396Z,21.13
2018-02-22T15:07:28.920Z,20.37
2018-02-22T15:09:56.416Z,22.13
2018-02-22T15:12:23.936Z,23.27
2018-02-22T15:14:51.464Z,22.27
2018-02-22T15:17:18.959Z,21.57
2018-02-22T15:19:46.508Z,21.00
2018-02-22T15:22:14.013Z,21.10
2018-02-22T15:24:41.523Z,19.93
2018-02-22T15:27:09.029Z,22.00
2018-02-22T15:29:36.543Z,23.13
2018-02-22T15:32:04.151Z,21.80
2018-02-22T15:34:31.663Z,21.10
2018-02-22T15:36:59.156Z,23.53
2018-02-22T15:39:26.673Z,23.03
2018-02-22T15:41:54.164Z,22.07
2018-02-22T15:44:21.743Z,22.97
2018-02-22T15:46:50.208Z,22.40
2018-02-22T15:49:17.726Z,20.40
2018-02-22T15:51:45.211Z,21.70
2018-02-22T15:54:12.815Z,20.27
2018-02-22T15:56:40.308Z,20.90
2018-02-22T15:59:07.828Z,20.47
2018-02-22T16:01:36.598Z,22.83
2018-02-22T16:04:04.108Z,21.80
2018-02-22T16:06:31.596Z,20.27
2018-02-22T16:08:59.184Z,21.50
2018-02-22T16:11:26.679Z,22.37
2018-02-22T16:13:54.195Z,21.73
2018-02-22T16:16:21.752Z,20.50
2018-02-22T16:18:49.299Z,22.97
2018-02-22T16:21:16.857Z,20.60
2018-02-22T16:23:44.380Z,22.77
2018-02-22T16:26:11.872Z,19.60
2018-02-22T16:28:39.395Z,20.57
2018-02-22T16:31:06.915Z,20.20
2018-02-22T16:33:34.424Z,20.70
2018-02-22T16:36:01.941Z,20.83
2018-02-22T16:38:29.460Z,20.37
2018-02-22T16:40:57.052Z,21.03
2018-02-22T16:43:24.584Z,21.27
2018-02-22T16:45:52.077Z,21.30
2018-02-22T16:48:19.610Z,20.40
2018-02-22T16:50:47.125Z,20.70
2018-02-22T16:53:14.619Z,21.17
2018-02-22T16:55:42.207Z,20.00
2018-02-22T16:58:09.703Z,20.97
2018-02-22T17:00:37.219Z,22.50
2018-02-22T17:03:04.752Z,20.13
2018-02-22T17:05:32.284Z,20.20
2018-02-22T17:08:00.788Z,20.87
2018-02-22T17:10:28.319Z,19.83
2018-02-22T17:12:55.819Z,21.10
2018-02-22T17:15:23.404Z,19.67
2018-02-22T17:17:50.961Z,18.93
2018-02-22T17:20:18.483Z,18.70
2018-02-22T17:22:45.998Z,20.23
2018-02-22T17:25:13.524Z,20.37
2018-02-22T17:27:46.600Z,20.90
2018-02-22T17:30:19.817Z,21.00
2018-02-22T17:32:47.307Z,21.17
2018-02-22T17:35:16.635Z,18.63
2018-02-22T17:37:44.124Z,20.07
2018-02-22T17:43:15.500Z,20.30
2018-02-22T17:45:43.120Z,20.53
2018-02-22T17:48:10.617Z,22.93
2018-02-22T17:50:38.155Z,20.53
2018-02-22T17:53:05.672Z,20.83
2018-02-22T17:55:33.240Z,20.40
2018-02-22T17:58:00.735Z,21.23
2018-02-22T18:00:28.248Z,21.63
2018-02-22T18:02:55.760Z,20.77
2018-02-22T18:05:23.292Z,20.47
2018-02-22T18:07:50.796Z,22.00
2018-02-22T18:10:18.358Z,22.17
2018-02-22T18:12:45.877Z,20.53
2018-02-22T18:15:13.452Z,21.97
2018-02-22T18:17:40.976Z,21.40
2018-02-22T18:20:08.505Z,22.37
2018-02-22T18:22:36.000Z,21.70
2018-02-22T18:25:03.537Z,22.00
2018-02-22T18:27:31.040Z,20.87
2018-02-22T18:29:58.648Z,22.17
2018-02-22T18:32:26.137Z,21.63
2018-02-22T18:34:53.750Z,20.30
2018-02-22T18:37:26.887Z,20.93
2018-02-22T18:39:54.399Z,21.63
2018-02-22T18:42:21.924Z,20.37
2018-02-22T18:44:55.084Z,20.90
2018-02-22T18:47:22.590Z,20.27
2018-02-22T18:49:50.099Z,20.87
2018-02-22T18:52:17.626Z,22.17
2018-02-22T18:54:45.211Z,21.87
2018-02-22T18:57:12.711Z,21.47
2018-02-22T18:59:40.203Z,20.10
2018-02-22T19:02:07.711Z,21.03
2018-02-22T19:04:35.198Z,22.20
2018-02-22T19:07:02.772Z,20.37
2018-02-22T19:09:30.331Z,23.47
2018-02-22T19:11:57.923Z,22.23
2018-02-22T19:14:25.375Z,21.40
2018-02-22T19:16:53.017Z,20.10
2018-02-22T19:19:20.503Z,20.03
2018-02-22T19:21:48.044Z,19.90
2018-02-22T19:24:15.588Z,19.63
2018-02-22T19:26:43.252Z,19.70
2018-02-22T19:29:11.702Z,21.13
2018-02-22T19:31:39.284Z,20.93
2018-02-22T19:34:06.771Z,21.67
2018-02-22T19:36:34.306Z,20.07
2018-02-22T19:39:01.799Z,20.50
2018-02-22T19:41:29.323Z,20.70
2018-02-22T19:43:56.887Z,26.10
2018-02-22T19:46:24.403Z,20.73
2018-02-22T19:48:52.010Z,21.57
2018-02-22T19:51:20.479Z,22.83
2018-02-22T19:53:48.050Z,22.00
2018-02-22T19:56:15.620Z,20.53
2018-02-22T19:58:43.116Z,21.63
2018-02-22T20:01:10.636Z,19.43
2018-02-22T20:03:38.132Z,19.10
2018-02-22T20:06:05.643Z,21.40
2018-02-22T20:08:33.207Z,20.40
2018-02-22T20:11:00.723Z,19.50
2018-02-22T20:13:29.216Z,19.60
2018-02-22T20:15:56.816Z,22.10
2018-02-22T20:18:24.303Z,20.97
2018-02-22T20:20:51.824Z,18.77
2018-02-22T20:23:19.380Z,18.00
2018-02-22T20:25:46.887Z,19.20
2018-02-22T20:28:14.382Z,23.50
2018-02-22T20:30:41.920Z,19.47
2018-02-22T20:33:09.516Z,19.93
2018-02-22T20:35:37.079Z,18.97
2018-02-22T20:38:04.605Z,20.43
2018-02-22T20:40:32.092Z,19.10
2018-02-22T20:42:59.603Z,19.67
2018-02-22T20:45:27.091Z,19.50
2018-02-22T20:47:54.628Z,21.63
2018-02-22T20:50:22.143Z,18.87
2018-02-22T20:52:53.620Z,19.23
2018-02-22T20:55:22.965Z,20.67
2018-02-22T20:57:50.483Z,20.70
2018-02-22T21:00:17.973Z,18.20
2018-02-22T21:02:45.504Z,20.30
2018-02-22T21:05:13.031Z,18.80
2018-02-22T21:07:40.544Z,18.37
2018-02-22T21:10:08.066Z,19.33
2018-02-22T21:12:35.580Z,19.20
2018-02-22T21:15:03.071Z,18.80
2018-02-22T21:17:30.584Z,19.50
2018-02-22T21:19:58.072Z,18.87
2018-02-22T21:22:25.604Z,18.33
2018-02-22T21:24:53.091Z,19.27
2018-02-22T21:27:20.636Z,19.10
2018-02-22T21:29:48.208Z,20.03
2018-02-22T21:32:15.723Z,19.67
2018-02-22T21:34:43.330Z,19.00
2018-02-22T21:37:10.847Z,19.67
2018-02-22T21:39:38.336Z,18.03
2018-02-22T21:42:05.996Z,19.83
2018-02-22T21:44:33.520Z,19.13
2018-02-22T21:47:01.031Z,21.03
2018-02-22T21:49:28.581Z,18.97
2018-02-22T21:51:56.103Z,19.13
2018-02-22T21:54:23.587Z,18.63
2018-02-22T21:56:51.163Z,18.70
2018-02-22T21:59:18.660Z,19.67
2018-02-22T22:01:46.171Z,20.67
2018-02-22T22:04:13.664Z,18.93
2018-02-22T22:06:41.196Z,18.43
2018-02-22T22:09:08.685Z,19.27
2018-02-22T22:11:36.176Z,18.67
2018-02-22T22:14:03.775Z,17.97
2018-02-22T22:16:31.301Z,18.60
2018-02-22T22:18:58.903Z,19.37
2018-02-22T22:21:26.400Z,18.83
2018-02-22T22:23:53.916Z,18.20
2018-02-22T22:26:21.416Z,18.33
2018-02-22T22:28:48.980Z,19.60
2018-02-22T22:31:16.479Z,19.33
2018-02-22T22:33:43.988Z,19.07
2018-02-22T22:36:11.495Z,18.87
2018-02-22T22:38:39.075Z,18.23
2018-02-22T22:41:06.564Z,19.97
2018-02-22T22:43:34.185Z,18.43
2018-02-22T22:46:01.701Z,18.90
2018-02-22T22:48:29.215Z,18.70
2018-02-22T22:50:56.728Z,19.00
2018-02-22T22:53:24.308Z,16.60
2018-02-22T22:55:51.877Z,16.97
2018-02-22T22:58:19.483Z,18.93
2018-02-22T23:00:46.969Z,18.33
2018-02-22T23:03:14.554Z,16.33
2018-02-22T23:05:42.108Z,17.00
2018-02-22T23:08:09.620Z,18.20
2018-02-22T23:10:37.112Z,17.93
2018-02-22T23:13:04.624Z,20.87
2018-02-22T23:15:32.111Z,17.47
2018-02-22T23:17:59.631Z,16.77
2018-02-22T23:20:27.139Z,16.17
2018-02-22T23:22:54.692Z,18.23
2018-02-22T23:25:23.207Z,16.00
2018-02-22T23:27:50.729Z,18.50
2018-02-22T23:30:18.323Z,16.67
2018-02-22T23:32:45.838Z,17.93
2018-02-22T23:35:13.348Z,18.10
2018-02-22T23:37:40.912Z,16.87
2018-02-22T23:40:15.023Z,16.20
2018-02-22T23:42:43.504Z,16.47
2018-02-22T23:45:11.059Z,17.83
2018-02-22T23:47:38.622Z,16.93
2018-02-22T23:50:06.115Z,16.70
2018-02-22T23:52:33.640Z,17.43
2018-02-22T23:55:01.165Z,17.40
2018-02-22T23:57:28.756Z,17.43
2018-02-22T23:59:56.272Z,18.17
